createdAt,value
2022-10-03T00:01:43.872Z,98918.78
2022-10-03T00:04:17.218Z,98916.84
2022-10-03T00:07:01.981Z,98923.19
2022-10-03T00:09:43.621Z,98920.75
2022-10-03T00:12:13.438Z,98927.63
2022-10-03T00:14:48.860Z,98934.94
2022-10-03T00:17:29.475Z,98926.81
2022-10-03T00:20:07.558Z,98942.94
2022-10-03T00:22:45.945Z,98934.47
2022-10-03T00:25:31.231Z,98938.88
2022-10-03T00:28:16.234Z,98936.25
2022-10-03T00:30:48.437Z,98935.94
2022-10-03T00:33:33.945Z,98944.72
2022-10-03T00:36:19.199Z,98946.59
2022-10-03T00:39:04.418Z,98947.41
2022-10-03T00:41:49.064Z,98950.41
2022-10-03T00:44:34.370Z,98954.41
2022-10-03T00:47:19.367Z,98949.53
2022-10-03T00:49:45.637Z,98959.31
2022-10-03T00:52:12.199Z,98952.03
2022-10-03T00:54:44.844Z,98948.88
2022-10-03T00:57:20.262Z,98957.53
2022-10-03T00:59:49.560Z,98957.19
2022-10-03T01:02:42.703Z,98961.16
2022-10-03T01:05:15.087Z,98967.84
2022-10-03T01:07:48.686Z,98968.16
2022-10-03T01:10:20.024Z,98966.66
2022-10-03T01:12:57.736Z,98967.31
2022-10-03T01:15:42.890Z,98961.94
2022-10-03T01:18:29.477Z,98955.56
2022-10-03T01:21:02.232Z,98965.34
2022-10-03T01:24:07.056Z,98966.50
2022-10-03T01:26:39.050Z,98970.28
2022-10-03T01:29:53.429Z,98974.84
2022-10-03T01:32:34.042Z,98973.84
2022-10-03T01:35:03.468Z,98979.56
2022-10-03T01:37:51.585Z,98981.16
2022-10-03T01:40:38.188Z,98980.19
2022-10-03T01:43:22.121Z,98988.38
2022-10-03T01:46:05.935Z,98986.88
2022-10-03T01:48:52.444Z,99000.94
2022-10-03T01:51:23.255Z,99002.38
2022-10-03T01:54:26.232Z,99008.25
2022-10-03T01:56:52.499Z,99007.25
2022-10-03T01:59:29.832Z,99011.97
2022-10-03T02:02:07.639Z,99020.28
2022-10-03T02:04:34.088Z,99020.13
2022-10-03T02:07:00.896Z,99022.25
2022-10-03T02:09:29.557Z,99019.97
2022-10-03T02:11:58.307Z,99023.53
2022-10-03T02:14:28.134Z,99024.53
2022-10-03T02:16:58.465Z,99024.19
2022-10-03T02:19:29.887Z,99020.28
2022-10-03T02:21:56.889Z,99027.47
2022-10-03T02:24:26.172Z,99033.66
2022-10-03T02:27:07.878Z,99038.06
2022-10-03T02:29:43.054Z,99035.97
2022-10-03T02:32:35.753Z,99042.97
2022-10-03T02:35:31.217Z,99044.75
2022-10-03T02:38:16.050Z,99040.03
2022-10-03T02:41:04.294Z,99049.00
2022-10-03T02:43:47.000Z,99050.47
2022-10-03T02:46:32.338Z,99046.06
2022-10-03T02:48:58.609Z,99044.59
2022-10-03T02:51:33.708Z,99049.97
2022-10-03T02:54:18.839Z,99051.94
2022-10-03T02:56:45.134Z,99053.38
2022-10-03T02:59:14.461Z,99049.84
2022-10-03T03:01:51.063Z,99050.97
2022-10-03T03:04:37.293Z,99059.28
2022-10-03T03:07:26.998Z,99056.19
2022-10-03T03:10:12.291Z,99057.16
2022-10-03T03:12:45.033Z,99060.44
2022-10-03T03:15:11.298Z,99062.22
2022-10-03T03:17:43.758Z,99070.22
2022-10-03T03:20:22.048Z,99068.75
2022-10-03T03:23:03.029Z,99067.59
2022-10-03T03:25:29.303Z,99070.03
2022-10-03T03:28:16.112Z,99066.94
2022-10-03T03:30:45.375Z,99065.97
2022-10-03T03:33:26.899Z,99062.38
2022-10-03T03:35:57.858Z,99075.75
2022-10-03T03:39:02.745Z,99075.75
2022-10-03T03:41:30.467Z,99079.34
2022-10-03T03:44:15.588Z,99087.66
2022-10-03T03:46:44.675Z,99080.00
2022-10-03T03:49:29.649Z,99087.31
2022-10-03T03:52:00.772Z,99081.47
2022-10-03T03:54:45.063Z,99082.09
2022-10-03T03:57:14.540Z,99080.47
2022-10-03T04:00:07.123Z,99083.06
2022-10-03T04:02:40.132Z,99082.28
2022-10-03T04:05:07.872Z,99086.84
2022-10-03T04:07:37.162Z,99089.28
2022-10-03T04:10:06.105Z,99085.53
2022-10-03T04:12:38.584Z,99087.97
2022-10-03T04:15:23.603Z,99091.91
2022-10-03T04:18:16.829Z,99100.19
2022-10-03T04:20:44.133Z,99102.00
2022-10-03T04:23:29.058Z,99095.47
2022-10-03T04:26:07.612Z,99100.69
2022-10-03T04:28:34.347Z,99103.63
2022-10-03T04:31:05.255Z,99103.97
2022-10-03T04:33:43.222Z,99100.03
2022-10-03T04:36:23.742Z,99103.28
2022-10-03T04:39:08.929Z,99098.56
2022-10-03T04:41:50.621Z,99091.56
2022-10-03T04:44:28.206Z,99098.25
2022-10-03T04:46:54.757Z,99104.59
2022-10-03T04:49:42.172Z,99096.59
2022-10-03T04:52:26.948Z,99100.06
2022-10-03T04:54:57.272Z,99102.81
2022-10-03T04:57:25.819Z,99106.56
2022-10-03T05:00:15.407Z,99096.13
2022-10-03T05:02:50.114Z,99100.19
2022-10-03T05:05:16.775Z,99098.06
2022-10-03T05:07:43.197Z,99110.63
2022-10-03T05:10:18.403Z,99104.09
2022-10-03T05:12:48.646Z,99104.75
2022-10-03T05:15:18.514Z,99124.97
2022-10-03T05:17:44.779Z,99114.88
2022-10-03T05:20:11.079Z,99129.53
2022-10-03T05:22:42.746Z,99121.88
2022-10-03T05:25:15.311Z,99132.97
2022-10-03T05:27:41.601Z,99125.31
2022-10-03T05:30:16.330Z,99130.69
2022-10-03T05:32:54.835Z,99130.69
2022-10-03T05:35:24.207Z,99137.69
2022-10-03T05:37:50.475Z,99134.75
2022-10-03T05:40:26.309Z,99147.16
2022-10-03T05:42:52.580Z,99147.16
2022-10-03T05:45:24.964Z,99152.69
2022-10-03T05:47:56.694Z,99148.78
2022-10-03T05:50:27.758Z,99152.03
2022-10-03T05:52:59.645Z,99157.91
2022-10-03T05:55:31.917Z,99163.28
2022-10-03T05:57:58.197Z,99161.66
2022-10-03T06:00:43.735Z,99168.66
2022-10-03T06:03:30.564Z,99172.75
2022-10-03T06:06:02.962Z,99175.50
2022-10-03T06:08:41.887Z,99166.22
2022-10-03T06:11:34.653Z,99166.22
2022-10-03T06:14:09.917Z,99163.78
2022-10-03T06:16:39.285Z,99159.88
2022-10-03T06:19:24.443Z,99162.47
2022-10-03T06:22:10.214Z,99164.59
2022-10-03T06:24:54.572Z,99161.63
2022-10-03T06:27:23.849Z,99158.38
2022-10-03T06:29:56.602Z,99161.00
2022-10-03T06:32:22.885Z,99165.41
2022-10-03T06:35:04.120Z,99161.31
2022-10-03T06:37:45.766Z,99164.25
2022-10-03T06:40:32.642Z,99163.56
2022-10-03T06:42:58.964Z,99167.34
2022-10-03T06:45:40.496Z,99163.59
2022-10-03T06:48:25.651Z,99168.34
2022-10-03T06:51:12.209Z,99158.06
2022-10-03T06:53:57.279Z,99159.19
2022-10-03T06:56:38.345Z,99169.81
2022-10-03T06:59:11.443Z,99169.81
2022-10-03T07:01:44.418Z,99162.63
2022-10-03T07:04:30.053Z,99165.41
2022-10-03T07:06:59.326Z,99176.63
2022-10-03T07:09:31.529Z,99175.19
2022-10-03T07:12:17.850Z,99181.03
2022-10-03T07:14:48.420Z,99183.81
2022-10-03T07:17:35.087Z,99183.81
2022-10-03T07:20:02.268Z,99177.78
2022-10-03T07:22:40.304Z,99173.81
2022-10-03T07:25:06.600Z,99179.19
2022-10-03T07:27:51.721Z,99176.09
2022-10-03T07:30:21.675Z,99179.06
2022-10-03T07:32:58.612Z,99179.06
2022-10-03T07:35:59.311Z,99182.13
2022-10-03T07:38:50.682Z,99182.13
2022-10-03T07:41:21.687Z,99191.75
2022-10-03T07:43:56.335Z,99190.41
2022-10-03T07:46:22.645Z,99194.47
2022-10-03T07:48:54.838Z,99196.72
2022-10-03T07:51:41.245Z,99202.59
2022-10-03T07:54:24.554Z,99198.06
2022-10-03T07:56:50.860Z,99206.50
2022-10-03T07:59:17.151Z,99209.72
2022-10-03T08:01:46.995Z,99222.38
2022-10-03T08:04:22.523Z,99214.56
2022-10-03T08:07:09.307Z,99222.91
2022-10-03T08:09:35.606Z,99213.44
2022-10-03T08:12:20.731Z,99228.75
2022-10-03T08:14:50.141Z,99220.59
2022-10-03T08:17:16.411Z,99233.31
2022-10-03T08:19:42.676Z,99230.72
2022-10-03T08:22:14.846Z,99224.19
2022-10-03T08:24:41.104Z,99228.47
2022-10-03T08:27:17.508Z,99227.91
2022-10-03T08:30:02.788Z,99223.44
2022-10-03T08:32:35.790Z,99231.53
2022-10-03T08:35:05.949Z,99226.94
2022-10-03T08:37:37.018Z,99225.47
2022-10-03T08:40:15.365Z,99226.44
2022-10-03T08:43:00.530Z,99226.72
2022-10-03T08:45:35.010Z,99223.00
2022-10-03T08:48:25.002Z,99230.03
2022-10-03T08:50:54.516Z,99229.03
2022-10-03T08:53:27.448Z,99229.97
2022-10-03T08:56:05.607Z,99238.59
2022-10-03T08:58:31.874Z,99246.97
2022-10-03T09:01:02.927Z,99239.44
2022-10-03T09:03:54.146Z,99241.75
2022-10-03T09:06:29.920Z,99236.31
2022-10-03T09:09:05.739Z,99238.84
2022-10-03T09:11:35.144Z,99237.03
2022-10-03T09:14:16.125Z,99241.66
2022-10-03T09:16:43.631Z,99240.72
2022-10-03T09:19:10.612Z,99239.34
2022-10-03T09:21:40.333Z,99239.38
2022-10-03T09:24:09.484Z,99243.25
2022-10-03T09:26:42.021Z,99245.94
2022-10-03T09:29:23.709Z,99243.19
2022-10-03T09:31:56.237Z,99244.50
2022-10-03T09:34:34.811Z,99248.69
2022-10-03T09:37:07.217Z,99248.69
2022-10-03T09:40:06.021Z,99251.22
2022-10-03T09:42:38.199Z,99254.25
2022-10-03T09:45:14.091Z,99254.25
2022-10-03T09:47:57.766Z,99258.44
2022-10-03T09:50:24.130Z,99250.72
2022-10-03T09:53:09.160Z,99242.44
2022-10-03T09:55:54.460Z,99243.41
2022-10-03T09:58:37.387Z,99249.69
2022-10-03T10:01:08.604Z,99242.38
2022-10-03T10:03:41.646Z,99250.16
2022-10-03T10:06:24.798Z,99246.06
2022-10-03T10:09:10.690Z,99241.38
2022-10-03T10:11:40.092Z,99248.13
2022-10-03T10:14:17.021Z,99239.63
2022-10-03T10:17:02.535Z,99246.56
2022-10-03T10:19:31.639Z,99237.63
2022-10-03T10:21:57.949Z,99236.09
2022-10-03T10:24:30.249Z,99239.31
2022-10-03T10:27:09.724Z,99239.47
2022-10-03T10:29:42.207Z,99232.84
2022-10-03T10:32:17.842Z,99234.22
2022-10-03T10:34:53.353Z,99237.09
2022-10-03T10:37:48.868Z,99232.44
2022-10-03T10:40:33.674Z,99232.06
2022-10-03T10:43:03.103Z,99244.41
2022-10-03T10:45:32.494Z,99228.44
2022-10-03T10:48:08.152Z,99234.22
2022-10-03T10:50:57.783Z,99236.50
2022-10-03T10:53:43.170Z,99228.09
2022-10-03T10:56:13.180Z,99229.84
2022-10-03T10:58:45.520Z,99230.38
2022-10-03T11:01:23.765Z,99231.06
2022-10-03T11:04:06.830Z,99229.00
2022-10-03T11:06:42.702Z,99233.50
2022-10-03T11:09:28.444Z,99226.59
2022-10-03T11:11:59.930Z,99225.06
2022-10-03T11:14:45.238Z,99225.19
2022-10-03T11:17:22.845Z,99225.63
2022-10-03T11:20:10.106Z,99226.56
2022-10-03T11:22:36.366Z,99230.56
2022-10-03T11:25:21.607Z,99224.72
2022-10-03T11:27:51.792Z,99222.22
2022-10-03T11:30:23.122Z,99222.16
2022-10-03T11:32:49.396Z,99231.34
2022-10-03T11:35:34.584Z,99229.72
2022-10-03T11:38:16.196Z,99217.78
2022-10-03T11:40:57.615Z,99206.69
2022-10-03T11:43:34.483Z,99217.44
2022-10-03T11:46:09.981Z,99224.34
2022-10-03T11:48:42.827Z,99214.47
2022-10-03T11:51:10.631Z,99217.13
2022-10-03T11:53:47.907Z,99222.44
2022-10-03T11:56:18.720Z,99226.81
2022-10-03T11:58:53.997Z,99223.31
2022-10-03T12:01:32.498Z,99215.72
2022-10-03T12:04:17.722Z,99229.69
2022-10-03T12:07:11.320Z,99228.41
2022-10-03T12:09:43.850Z,99233.94
2022-10-03T12:12:27.794Z,99225.38
2022-10-03T12:14:54.271Z,99222.66
2022-10-03T12:17:33.445Z,99222.13
2022-10-03T12:20:15.049Z,99219.31
2022-10-03T12:22:53.101Z,99226.16
2022-10-03T12:25:19.553Z,99215.91
2022-10-03T12:28:04.892Z,99227.59
2022-10-03T12:30:34.306Z,99219.28
2022-10-03T12:33:00.587Z,99222.28
2022-10-03T12:35:26.926Z,99228.38
2022-10-03T12:38:11.490Z,99229.19
2022-10-03T12:40:39.548Z,99226.50
2022-10-03T12:43:24.656Z,99223.81
2022-10-03T12:45:54.570Z,99225.81
2022-10-03T12:48:31.735Z,99223.28
2022-10-03T12:50:59.464Z,99223.53
2022-10-03T12:53:30.313Z,99219.09
2022-10-03T12:55:59.874Z,99216.75
2022-10-03T12:58:28.892Z,99215.34
2022-10-03T13:01:04.632Z,99216.06
2022-10-03T13:03:52.003Z,99221.47
2022-10-03T13:06:44.475Z,99215.53
2022-10-03T13:09:16.580Z,99212.66
2022-10-03T13:11:47.224Z,99215.13
2022-10-03T13:14:33.025Z,99218.69
2022-10-03T13:17:20.142Z,99209.53
2022-10-03T13:20:06.450Z,99215.25
2022-10-03T13:22:51.637Z,99211.91
2022-10-03T13:25:22.625Z,99211.16
2022-10-03T13:27:48.992Z,99207.06
2022-10-03T13:30:19.612Z,99207.94
2022-10-03T13:32:47.588Z,99205.56
2022-10-03T13:35:37.883Z,99206.78
2022-10-03T13:38:04.400Z,99204.78
2022-10-03T13:40:30.911Z,99206.50
2022-10-03T13:42:57.650Z,99203.53
2022-10-03T13:45:28.188Z,99206.53
2022-10-03T13:48:20.889Z,99202.38
2022-10-03T13:51:14.464Z,99199.75
2022-10-03T13:53:52.413Z,99196.47
2022-10-03T13:56:25.068Z,99192.41
2022-10-03T13:58:51.353Z,99191.00
2022-10-03T14:01:30.067Z,99193.75
2022-10-03T14:04:09.893Z,99202.16
2022-10-03T14:06:52.415Z,99198.69
2022-10-03T14:09:24.478Z,99202.28
2022-10-03T14:11:59.674Z,99201.47
2022-10-03T14:14:35.125Z,99199.69
2022-10-03T14:17:11.807Z,99202.88
2022-10-03T14:19:57.243Z,99203.28
2022-10-03T14:22:36.027Z,99200.53
2022-10-03T14:25:05.639Z,99199.19
2022-10-03T14:27:34.681Z,99190.75
2022-10-03T14:30:10.483Z,99200.94
2022-10-03T14:32:48.043Z,99202.34
2022-10-03T14:35:27.155Z,99196.72
2022-10-03T14:37:58.273Z,99196.47
2022-10-03T14:40:43.682Z,99196.03
2022-10-03T14:43:22.265Z,99185.94
2022-10-03T14:45:49.588Z,99189.75
2022-10-03T14:48:17.303Z,99185.78
2022-10-03T14:50:44.043Z,99189.28
2022-10-03T14:53:24.969Z,99194.72
2022-10-03T14:55:51.251Z,99196.19
2022-10-03T14:58:20.324Z,99188.03
2022-10-03T15:00:51.187Z,99182.78
2022-10-03T15:03:17.547Z,99184.97
2022-10-03T15:05:58.935Z,99181.88
2022-10-03T15:08:26.345Z,99187.56
2022-10-03T15:10:53.508Z,99188.94
2022-10-03T15:13:20.325Z,99175.22
2022-10-03T15:15:46.720Z,99176.31
2022-10-03T15:18:17.031Z,99173.78
2022-10-03T15:20:43.866Z,99171.25
2022-10-03T15:23:20.087Z,99167.75
2022-10-03T15:25:52.857Z,99167.59
2022-10-03T15:28:42.176Z,99170.84
2022-10-03T15:31:31.901Z,99174.56
2022-10-03T15:33:59.099Z,99171.59
2022-10-03T15:36:26.783Z,99172.13
2022-10-03T15:38:53.889Z,99168.28
2022-10-03T15:41:26.975Z,99178.22
2022-10-03T15:43:56.952Z,99172.31
2022-10-03T15:46:26.431Z,99174.00
2022-10-03T15:48:53.051Z,99164.88
2022-10-03T15:51:23.079Z,99170.00
2022-10-03T15:53:50.467Z,99163.84
2022-10-03T15:56:19.626Z,99159.53
2022-10-03T15:58:55.019Z,99149.38
2022-10-03T16:01:28.753Z,99150.72
2022-10-03T16:04:01.862Z,99149.69
2022-10-03T16:06:47.734Z,99148.88
2022-10-03T16:09:23.022Z,99145.53
2022-10-03T16:12:00.340Z,99141.63
2022-10-03T16:14:27.640Z,99141.47
2022-10-03T16:16:58.128Z,99129.38
2022-10-03T16:19:31.554Z,99135.13
2022-10-03T16:22:14.208Z,99139.09
2022-10-03T16:24:41.799Z,99135.25
2022-10-03T16:27:18.245Z,99123.22
2022-10-03T16:29:49.738Z,99128.88
2022-10-03T16:32:17.209Z,99128.75
2022-10-03T16:34:44.029Z,99128.00
2022-10-03T16:37:37.074Z,99123.72
2022-10-03T16:40:04.626Z,99121.31
2022-10-03T16:42:38.351Z,99124.28
2022-10-03T16:45:05.226Z,99126.28
2022-10-03T16:47:33.205Z,99123.38
2022-10-03T16:50:18.250Z,99129.28
2022-10-03T16:52:45.691Z,99121.28
2022-10-03T16:55:14.986Z,99123.59
2022-10-03T16:57:44.672Z,99123.59
2022-10-03T17:00:14.832Z,99131.38
2022-10-03T17:02:41.249Z,99136.06
2022-10-03T17:05:08.188Z,99134.53
2022-10-03T17:07:38.648Z,99124.72
2022-10-03T17:10:05.092Z,99136.53
2022-10-03T17:12:36.993Z,99141.31
2022-10-03T17:15:15.963Z,99134.78
2022-10-03T17:18:05.583Z,99141.03
2022-10-03T17:20:48.299Z,99136.44
2022-10-03T17:23:18.304Z,99143.31
2022-10-03T17:25:49.420Z,99145.59
2022-10-03T17:28:18.550Z,99142.34
2022-10-03T17:31:04.359Z,99154.41
2022-10-03T17:33:44.360Z,99138.91
2022-10-03T17:36:16.810Z,99140.69
2022-10-03T17:38:50.243Z,99146.88
2022-10-03T17:41:21.205Z,99145.06
2022-10-03T17:44:00.571Z,99142.13
2022-10-03T17:46:39.374Z,99144.28
2022-10-03T17:49:18.082Z,99151.44
2022-10-03T17:51:45.061Z,99143.78
2022-10-03T17:54:12.703Z,99144.91
2022-10-03T17:56:41.373Z,99140.34
2022-10-03T17:59:14.661Z,99133.84
2022-10-03T18:01:44.660Z,99141.84
2022-10-03T18:04:18.357Z,99143.13
2022-10-03T18:06:44.697Z,99140.69
2022-10-03T18:09:13.962Z,99135.84
2022-10-03T18:11:40.610Z,99140.19
2022-10-03T18:14:13.158Z,99143.97
2022-10-03T18:16:43.553Z,99136.78
2022-10-03T18:19:10.346Z,99147.53
2022-10-03T18:21:48.763Z,99138.88
2022-10-03T18:24:20.830Z,99140.84
2022-10-03T18:26:55.484Z,99133.50
2022-10-03T18:29:25.175Z,99138.72
2022-10-03T18:31:55.953Z,99138.25
2022-10-03T18:34:25.221Z,99139.44
2022-10-03T18:36:53.251Z,99138.94
2022-10-03T18:39:21.645Z,99131.13
2022-10-03T18:41:48.673Z,99136.81
2022-10-03T18:44:18.622Z,99132.25
2022-10-03T18:46:50.682Z,99141.56
2022-10-03T18:49:33.349Z,99130.28
2022-10-03T18:52:03.518Z,99130.78
2022-10-03T18:54:47.987Z,99126.22
2022-10-03T18:57:18.958Z,99129.47
2022-10-03T18:59:47.686Z,99125.94
2022-10-03T19:02:23.027Z,99122.00
2022-10-03T19:04:51.364Z,99121.34
2022-10-03T19:07:24.619Z,99120.53
2022-10-03T19:10:11.614Z,99123.84
2022-10-03T19:12:39.392Z,99125.94
2022-10-03T19:15:05.713Z,99127.25
2022-10-03T19:17:31.998Z,99124.28
2022-10-03T19:19:59.566Z,99118.94
2022-10-03T19:22:37.661Z,99110.78
2022-10-03T19:25:04.312Z,99128.72
2022-10-03T19:27:45.092Z,99123.84
2022-10-03T19:30:11.745Z,99131.66
2022-10-03T19:32:40.849Z,99117.16
2022-10-03T19:35:07.168Z,99113.91
2022-10-03T19:37:45.264Z,99126.25
2022-10-03T19:40:15.701Z,99121.53
2022-10-03T19:42:42.973Z,99118.94
2022-10-03T19:45:11.415Z,99117.50
2022-10-03T19:47:38.393Z,99112.75
2022-10-03T19:50:05.662Z,99121.53
2022-10-03T19:52:35.405Z,99114.38
2022-10-03T19:55:01.929Z,99115.38
2022-10-03T19:57:34.245Z,99110.31
2022-10-03T20:00:01.083Z,99110.63
2022-10-03T20:02:27.699Z,99109.50
2022-10-03T20:04:54.543Z,99109.50
2022-10-03T20:07:34.224Z,99109.34
2022-10-03T20:10:03.790Z,99119.13
2022-10-03T20:12:30.381Z,99116.69
2022-10-03T20:15:01.193Z,99119.94
2022-10-03T20:17:27.553Z,99123.50
2022-10-03T20:19:58.019Z,99126.13
2022-10-03T20:22:25.337Z,99123.50
2022-10-03T20:24:51.650Z,99111.44
2022-10-03T20:27:27.194Z,99109.97
2022-10-03T20:29:59.686Z,99111.59
2022-10-03T20:32:26.029Z,99117.78
2022-10-03T20:34:54.410Z,99110.44
2022-10-03T20:37:23.840Z,99105.09
2022-10-03T20:39:50.215Z,99108.69
2022-10-03T20:42:17.714Z,99109.50
2022-10-03T20:44:59.380Z,99107.69
2022-10-03T20:47:40.642Z,99100.69
2022-10-03T20:50:10.626Z,99097.44
2022-10-03T20:52:36.935Z,99100.50
2022-10-03T20:55:06.345Z,99106.38
2022-10-03T20:57:35.586Z,99115.03
2022-10-03T21:00:15.963Z,99114.69
2022-10-03T21:02:43.941Z,99106.53
2022-10-03T21:05:20.405Z,99108.19
2022-10-03T21:07:53.001Z,99106.72
2022-10-03T21:10:32.718Z,99099.72
2022-10-03T21:12:59.997Z,99104.59
2022-10-03T21:15:33.290Z,99100.50
2022-10-03T21:17:59.672Z,99099.38
2022-10-03T21:20:36.250Z,99097.75
2022-10-03T21:23:03.723Z,99096.44
2022-10-03T21:25:30.523Z,99094.66
2022-10-03T21:27:57.186Z,99090.75
2022-10-03T21:30:32.966Z,99087.81
2022-10-03T21:32:59.472Z,99086.84
2022-10-03T21:35:39.624Z,99087.50
2022-10-03T21:38:15.094Z,99094.47
2022-10-03T21:40:54.472Z,99095.78
2022-10-03T21:43:26.866Z,99096.94
2022-10-03T21:45:59.340Z,99093.53
2022-10-03T21:48:28.897Z,99100.34
2022-10-03T21:51:01.574Z,99100.69
2022-10-03T21:53:27.837Z,99104.91
2022-10-03T21:55:54.377Z,99098.88
2022-10-03T21:58:39.063Z,99087.00
2022-10-03T22:01:05.433Z,99086.34
2022-10-03T22:03:37.420Z,99089.75
2022-10-03T22:06:22.535Z,99082.91
2022-10-03T22:08:48.851Z,99086.84
2022-10-03T22:11:34.293Z,99075.44
2022-10-03T22:14:03.629Z,99072.66
2022-10-03T22:16:40.883Z,99076.56
2022-10-03T22:19:10.199Z,99068.94
2022-10-03T22:22:02.979Z,99064.34
2022-10-03T22:24:48.005Z,99065.50
2022-10-03T22:27:35.215Z,99062.41
2022-10-03T22:30:03.936Z,99051.16
2022-10-03T22:32:50.511Z,99059.13
2022-10-03T22:35:17.060Z,99062.56
2022-10-03T22:37:43.376Z,99049.19
2022-10-03T22:40:09.758Z,99054.09
2022-10-03T22:42:39.420Z,99043.16
2022-10-03T22:45:05.935Z,99034.38
2022-10-03T22:47:32.360Z,99039.72
2022-10-03T22:50:02.439Z,99045.28
2022-10-03T22:52:29.990Z,99037.63
2022-10-03T22:54:56.553Z,99036.97
2022-10-03T22:57:23.498Z,99045.28
2022-10-03T22:59:50.656Z,99033.69
2022-10-03T23:02:16.995Z,99032.38
2022-10-03T23:04:44.801Z,99036.13
2022-10-03T23:07:17.177Z,99037.13
2022-10-03T23:09:43.460Z,99033.88
2022-10-03T23:12:10.238Z,99030.31
2022-10-03T23:14:37.471Z,99033.72
2022-10-03T23:17:20.115Z,99031.78
2022-10-03T23:20:12.720Z,99020.34
2022-10-03T23:22:40.238Z,99022.16
2022-10-03T23:25:07.074Z,99033.22
2022-10-03T23:27:51.087Z,99044.50
2022-10-03T23:30:17.747Z,99037.81
2022-10-03T23:32:46.946Z,99050.84
2022-10-03T23:35:13.234Z,99041.22
2022-10-03T23:37:40.455Z,99042.19
2022-10-03T23:40:06.987Z,99041.06
2022-10-03T23:42:33.263Z,99036.47
2022-10-03T23:45:12.036Z,99034.53
2022-10-03T23:47:57.198Z,99026.06
2022-10-03T23:50:27.142Z,99032.91
2022-10-03T23:52:54.688Z,99036.31
2022-10-03T23:55:22.033Z,99028.84
2022-10-03T23:57:48.343Z,99037.16
